Eastern Galaxy — DUCH — position and weather

sailwx.info

Track history (hours):
 
Tides and Currents Weather Stations Pressure Air Temp Water Temp Dewpoint Dewpoint Depression Visibility Wind Speed Wind Dir Waves Ship Positions

Eastern Galaxy

Last reported at 2015-Apr-16 06:24 UTC. Time now 2015-Apr-21 01:30 UTC.
Position N 34°41' E 139°09'.

Length 100 m; draft 6.5 m.

Type: Cargo ship. MMSI: 548829000.

Date/timePositionNaut miles runAvg speedWind from/ knotsBaromVisibWave heightAir tempDewpointWater temp
2015-Apr-16 06:24N 34°41' E 139°09'8 8.9
2015-Apr-16 05:33N 34°48' E 139°14'9 9.1
2015-Apr-16 04:33N 34°54' E 139°22'10 9.6
2015-Apr-16 03:33N 34°59' E 139°32'1110.5
2015-Apr-16 02:33N 35°05' E 139°43'1110.6
2015-Apr-16 01:33N 35°15' E 139°46'10 9.7
2015-Apr-16 00:33N 35°24' E 139°42'4 3.5
2015-Apr-15 23:32N 35°27' E 139°41'0 0.0
2015-Apr-15 22:32N 35°27' E 139°41'0 0.0
2015-Apr-15 21:32N 35°27' E 139°41'0 0.0
2015-Apr-15 20:32N 35°27' E 139°41'0 0.0
2015-Apr-15 19:32N 35°27' E 139°41'0 0.0
2015-Apr-15 18:32N 35°27' E 139°41'0 0.0
2015-Apr-15 17:32N 35°27' E 139°41'0 0.0
2015-Apr-15 16:32N 35°27' E 139°41'0 0.0
2015-Apr-15 15:32N 35°27' E 139°41'0 0.0
2015-Apr-15 14:32N 35°27' E 139°41'0 0.0
2015-Apr-15 13:32N 35°27' E 139°41'0 0.0
2015-Apr-15 12:32N 35°27' E 139°41'0 0.0
2015-Apr-15 11:32N 35°27' E 139°41'0 0.0
2015-Apr-15 10:32N 35°27' E 139°41'0 0.0
2015-Apr-15 09:32N 35°27' E 139°41'0 0.0
2015-Apr-15 08:29N 35°27' E 139°41'0 0.0
2015-Apr-15 07:32N 35°27' E 139°41'0 0.0
2015-Apr-15 06:32N 35°27' E 139°41'0 0.0
2015-Apr-15 05:32N 35°27' E 139°41'0 0.0
2015-Apr-15 04:29N 35°27' E 139°41'0 0.0
2015-Apr-15 03:32N 35°27' E 139°41'0 0.0
2015-Apr-15 02:29N 35°27' E 139°41'0 0.0
2015-Apr-15 01:29N 35°27' E 139°41'0 0.0
2015-Apr-15 00:32N 35°27' E 139°41'0 0.0
2015-Apr-14 23:32N 35°27' E 139°41'0 0.0
2015-Apr-14 22:32N 35°27' E 139°41'0 0.0
2015-Apr-14 21:32N 35°27' E 139°41'0 0.0
2015-Apr-14 20:32N 35°27' E 139°41'0 0.0
2015-Apr-14 19:32N 35°27' E 139°41'0 0.0
2015-Apr-14 18:32N 35°27' E 139°41'0 0.0
2015-Apr-14 17:32N 35°27' E 139°41'0 0.0
2015-Apr-14 16:32N 35°27' E 139°41'0 0.0
2015-Apr-14 15:32N 35°27' E 139°41'0 0.0
2015-Apr-14 14:32N 35°27' E 139°41'0 0.0
2015-Apr-14 13:32N 35°27' E 139°41'0 0.0
2015-Apr-14 12:32N 35°27' E 139°41'0 0.0
2015-Apr-14 11:32N 35°27' E 139°41'0 0.0
2015-Apr-14 10:32N 35°27' E 139°41'0 0.0
2015-Apr-14 09:32N 35°27' E 139°41'0 0.0
2015-Apr-14 08:32N 35°27' E 139°41'0 0.0
2015-Apr-14 07:32N 35°27' E 139°41'0 0.0
2015-Apr-14 06:32N 35°27' E 139°41'0 0.0
2015-Apr-14 05:32N 35°27' E 139°41'0 0.0
2015-Apr-14 04:32N 35°27' E 139°41'0 0.0
2015-Apr-14 03:32N 35°27' E 139°41'0 0.0
2015-Apr-14 02:32N 35°27' E 139°41'0 0.0
2015-Apr-14 01:32N 35°27' E 139°41'0 0.0
2015-Apr-14 00:32N 35°27' E 139°41'0 0.0
2015-Apr-13 23:32N 35°27' E 139°41'0 0.0
2015-Apr-13 22:32N 35°27' E 139°41'0 0.0
2015-Apr-13 21:32N 35°27' E 139°41'0 0.0
2015-Apr-13 20:32N 35°27' E 139°41'0 0.0
2015-Apr-13 19:32N 35°27' E 139°41'0 0.0
2015-Apr-13 18:32N 35°27' E 139°41'0 0.0
2015-Apr-13 17:29N 35°27' E 139°41'0 0.0
2015-Apr-13 16:32N 35°27' E 139°41'0 0.0
2015-Apr-13 15:29N 35°27' E 139°41'0 0.0
2015-Apr-13 14:32N 35°27' E 139°41'0 0.0
2015-Apr-13 13:32N 35°27' E 139°41'0 0.0
2015-Apr-13 12:32N 35°27' E 139°41'0 0.0
2015-Apr-13 11:32N 35°27' E 139°41'0 0.0
2015-Apr-13 10:32N 35°27' E 139°41'0 0.0
2015-Apr-13 09:32N 35°27' E 139°41'1 0.8
2015-Apr-13 08:34N 35°27' E 139°42'5 5.2
2015-Apr-13 07:34N 35°27' E 139°48'6 6.0
2015-Apr-13 06:34N 35°31' E 139°54'8 7.7
2015-Apr-13 05:34N 35°34' E 140°02'4 3.4
2015-Apr-13 04:31N 35°36' E 140°06'0 0.0
2015-Apr-13 03:31N 35°36' E 140°06'0 0.0
2015-Apr-13 02:25N 35°36' E 140°06'0 0.0
2015-Apr-13 00:31N 35°36' E 140°06'0 0.0
2015-Apr-12 23:25N 35°36' E 140°06'0 0.0
2015-Apr-12 22:13N 35°36' E 140°06'0 0.0
2015-Apr-12 21:31N 35°36' E 140°06'0 0.0
2015-Apr-12 20:31N 35°36' E 140°06'0 0.0
2015-Apr-12 19:31N 35°36' E 140°06'0 0.0
2015-Apr-12 18:13N 35°36' E 140°06'0 0.0
2015-Apr-12 17:25N 35°36' E 140°06'0 0.0
2015-Apr-12 16:31N 35°36' E 140°06'0 0.0
2015-Apr-12 15:31N 35°36' E 140°06'0 0.0
2015-Apr-12 14:31N 35°36' E 140°06'0 0.0
2015-Apr-12 13:25N 35°36' E 140°06'0 0.0
2015-Apr-12 12:31N 35°36' E 140°06'0 0.0
2015-Apr-12 11:31N 35°36' E 140°06'0 0.0
2015-Apr-12 09:31N 35°36' E 140°06'0 0.0
2015-Apr-12 08:13N 35°36' E 140°06'0 0.0
2015-Apr-12 07:25N 35°36' E 140°06'0 0.0
2015-Apr-12 06:26N 35°36' E 140°06'2 2.7
2015-Apr-12 05:33N 35°35' E 140°03'8 8.1
2015-Apr-12 04:33N 35°31' E 139°55'9 9.2
2015-Apr-12 03:34N 35°25' E 139°47'1110.7
2015-Apr-12 02:33N 35°14' E 139°47'1111.3
2015-Apr-12 01:33N 35°03' E 139°43'1312.1
2015-Apr-12 00:29N 34°55' E 139°30'23410.6
2015-Apr-11 02:30N 33°54' E 134°56'1313.7
2015-Apr-11 01:33N 34°07' E 134°58'1413.6
2015-Apr-11 00:32N 34°21' E 134°60'1313.4
2015-Apr-10 23:33N 34°33' E 135°05'1110.1
2015-Apr-10 22:31N 34°35' E 134°52'  
Track history (hours):
 
Tides and Currents Weather Stations Pressure Air Temp Water Temp Dewpoint Dewpoint Depression Visibility Wind Speed Wind Dir Waves Ship Positions

Eastern Galaxy

Last reported at 2015-Apr-16 06:24 UTC. Time now 2015-Apr-21 01:30 UTC.
Position N 34°41' E 139°09'.

Length 100 m; draft 6.5 m.

Type: Cargo ship. MMSI: 548829000.

Date/timePositionNaut miles runAvg speedWind from/ knotsBaromVisibWave heightAir tempDewpointWater temp
2015-Apr-16 06:24N 34°41' E 139°09'8 8.9
2015-Apr-16 05:33N 34°48' E 139°14'9 9.1
2015-Apr-16 04:33N 34°54' E 139°22'10 9.6
2015-Apr-16 03:33N 34°59' E 139°32'1110.5
2015-Apr-16 02:33N 35°05' E 139°43'1110.6
2015-Apr-16 01:33N 35°15' E 139°46'10 9.7
2015-Apr-16 00:33N 35°24' E 139°42'4 3.5
2015-Apr-15 23:32N 35°27' E 139°41'0 0.0
2015-Apr-15 22:32N 35°27' E 139°41'0 0.0
2015-Apr-15 21:32N 35°27' E 139°41'0 0.0
2015-Apr-15 20:32N 35°27' E 139°41'0 0.0
2015-Apr-15 19:32N 35°27' E 139°41'0 0.0
2015-Apr-15 18:32N 35°27' E 139°41'0 0.0
2015-Apr-15 17:32N 35°27' E 139°41'0 0.0
2015-Apr-15 16:32N 35°27' E 139°41'0 0.0
2015-Apr-15 15:32N 35°27' E 139°41'0 0.0
2015-Apr-15 14:32N 35°27' E 139°41'0 0.0
2015-Apr-15 13:32N 35°27' E 139°41'0 0.0
2015-Apr-15 12:32N 35°27' E 139°41'0 0.0
2015-Apr-15 11:32N 35°27' E 139°41'0 0.0
2015-Apr-15 10:32N 35°27' E 139°41'0 0.0
2015-Apr-15 09:32N 35°27' E 139°41'0 0.0
2015-Apr-15 08:29N 35°27' E 139°41'0 0.0
2015-Apr-15 07:32N 35°27' E 139°41'0 0.0
2015-Apr-15 06:32N 35°27' E 139°41'0 0.0
2015-Apr-15 05:32N 35°27' E 139°41'0 0.0
2015-Apr-15 04:29N 35°27' E 139°41'0 0.0
2015-Apr-15 03:32N 35°27' E 139°41'0 0.0
2015-Apr-15 02:29N 35°27' E 139°41'0 0.0
2015-Apr-15 01:29N 35°27' E 139°41'0 0.0
2015-Apr-15 00:32N 35°27' E 139°41'0 0.0
2015-Apr-14 23:32N 35°27' E 139°41'0 0.0
2015-Apr-14 22:32N 35°27' E 139°41'0 0.0
2015-Apr-14 21:32N 35°27' E 139°41'0 0.0
2015-Apr-14 20:32N 35°27' E 139°41'0 0.0
2015-Apr-14 19:32N 35°27' E 139°41'0 0.0
2015-Apr-14 18:32N 35°27' E 139°41'0 0.0
2015-Apr-14 17:32N 35°27' E 139°41'0 0.0
2015-Apr-14 16:32N 35°27' E 139°41'0 0.0
2015-Apr-14 15:32N 35°27' E 139°41'0 0.0
2015-Apr-14 14:32N 35°27' E 139°41'0 0.0
2015-Apr-14 13:32N 35°27' E 139°41'0 0.0
2015-Apr-14 12:32N 35°27' E 139°41'0 0.0
2015-Apr-14 11:32N 35°27' E 139°41'0 0.0
2015-Apr-14 10:32N 35°27' E 139°41'0 0.0
2015-Apr-14 09:32N 35°27' E 139°41'0 0.0
2015-Apr-14 08:32N 35°27' E 139°41'0 0.0
2015-Apr-14 07:32N 35°27' E 139°41'0 0.0
2015-Apr-14 06:32N 35°27' E 139°41'0 0.0
2015-Apr-14 05:32N 35°27' E 139°41'0 0.0
2015-Apr-14 04:32N 35°27' E 139°41'0 0.0
2015-Apr-14 03:32N 35°27' E 139°41'0 0.0
2015-Apr-14 02:32N 35°27' E 139°41'0 0.0
2015-Apr-14 01:32N 35°27' E 139°41'0 0.0
2015-Apr-14 00:32N 35°27' E 139°41'0 0.0
2015-Apr-13 23:32N 35°27' E 139°41'0 0.0
2015-Apr-13 22:32N 35°27' E 139°41'0 0.0
2015-Apr-13 21:32N 35°27' E 139°41'0 0.0
2015-Apr-13 20:32N 35°27' E 139°41'0 0.0
2015-Apr-13 19:32N 35°27' E 139°41'0 0.0
2015-Apr-13 18:32N 35°27' E 139°41'0 0.0
2015-Apr-13 17:29N 35°27' E 139°41'0 0.0
2015-Apr-13 16:32N 35°27' E 139°41'0 0.0
2015-Apr-13 15:29N 35°27' E 139°41'0 0.0
2015-Apr-13 14:32N 35°27' E 139°41'0 0.0
2015-Apr-13 13:32N 35°27' E 139°41'0 0.0
2015-Apr-13 12:32N 35°27' E 139°41'0 0.0
2015-Apr-13 11:32N 35°27' E 139°41'0 0.0
2015-Apr-13 10:32N 35°27' E 139°41'0 0.0
2015-Apr-13 09:32N 35°27' E 139°41'1 0.8
2015-Apr-13 08:34N 35°27' E 139°42'5 5.2
2015-Apr-13 07:34N 35°27' E 139°48'6 6.0
2015-Apr-13 06:34N 35°31' E 139°54'8 7.7
2015-Apr-13 05:34N 35°34' E 140°02'4 3.4
2015-Apr-13 04:31N 35°36' E 140°06'0 0.0
2015-Apr-13 03:31N 35°36' E 140°06'0 0.0
2015-Apr-13 02:25N 35°36' E 140°06'0 0.0
2015-Apr-13 00:31N 35°36' E 140°06'0 0.0
2015-Apr-12 23:25N 35°36' E 140°06'0 0.0
2015-Apr-12 22:13N 35°36' E 140°06'0 0.0
2015-Apr-12 21:31N 35°36' E 140°06'0 0.0
2015-Apr-12 20:31N 35°36' E 140°06'0 0.0
2015-Apr-12 19:31N 35°36' E 140°06'0 0.0
2015-Apr-12 18:13N 35°36' E 140°06'0 0.0
2015-Apr-12 17:25N 35°36' E 140°06'0 0.0
2015-Apr-12 16:31N 35°36' E 140°06'0 0.0
2015-Apr-12 15:31N 35°36' E 140°06'0 0.0
2015-Apr-12 14:31N 35°36' E 140°06'0 0.0
2015-Apr-12 13:25N 35°36' E 140°06'0 0.0
2015-Apr-12 12:31N 35°36' E 140°06'0 0.0
2015-Apr-12 11:31N 35°36' E 140°06'0 0.0
2015-Apr-12 09:31N 35°36' E 140°06'0 0.0
2015-Apr-12 08:13N 35°36' E 140°06'0 0.0
2015-Apr-12 07:25N 35°36' E 140°06'0 0.0
2015-Apr-12 06:26N 35°36' E 140°06'2 2.7
2015-Apr-12 05:33N 35°35' E 140°03'8 8.1
2015-Apr-12 04:33N 35°31' E 139°55'9 9.2
2015-Apr-12 03:34N 35°25' E 139°47'1110.7
2015-Apr-12 02:33N 35°14' E 139°47'1111.3
2015-Apr-12 01:33N 35°03' E 139°43'1312.1
2015-Apr-12 00:29N 34°55' E 139°30'23410.6
2015-Apr-11 02:30N 33°54' E 134°56'1313.7
2015-Apr-11 01:33N 34°07' E 134°58'1413.6
2015-Apr-11 00:32N 34°21' E 134°60'1313.4
2015-Apr-10 23:33N 34°33' E 135°05'1110.1
2015-Apr-10 22:31N 34°35' E 134°52'  

Dump ship's entire track history